Time,TemperatureF,DewpointF,PressureIn,WindDirection,WindDirectionDegrees,WindSpeedMPH,WindSpeedGustMPH,Humidity,HourlyPrecipIn,Conditions,Clouds,dailyrainin,SoftwareType,DateUTC
2013-03-05 00:00:00,32.8,21.6,29.82,NNW,331,5.0,12.0,63,0.00,,---,0.00,VWS V14.00,2013-03-05 05:00:00,
2013-03-05 00:03:00,32.7,21.5,29.82,West,279,11.0,18.0,63,0.00,,---,0.00,VWS V14.00,2013-03-05 05:03:00,
2013-03-05 00:08:00,32.7,21.9,29.82,WNW,292,4.0,16.0,64,0.00,,---,0.00,VWS V14.00,2013-03-05 05:08:00,
2013-03-05 00:13:00,32.7,21.9,29.82,NW,304,8.0,20.0,64,0.00,,---,0.00,VWS V14.00,2013-03-05 05:13:00,
2013-03-05 00:18:00,32.8,22.0,29.82,NW,312,11.0,22.0,64,0.00,,---,0.00,VWS V14.00,2013-03-05 05:18:00,
2013-03-05 00:23:00,32.7,21.9,29.82,NNW,327,11.0,21.0,64,0.00,,---,0.00,VWS V14.00,2013-03-05 05:23:00,
2013-03-05 00:28:00,32.7,21.9,29.83,NW,304,12.0,19.0,64,0.00,,---,0.00,VWS V14.00,2013-03-05 05:28:00,
2013-03-05 00:33:00,32.7,21.9,29.83,North,349,20.0,20.0,64,0.00,,---,0.00,VWS V14.00,2013-03-05 05:33:00,
2013-03-05 00:38:00,32.7,21.9,29.83,WNW,282,5.0,21.0,64,0.00,,---,0.00,VWS V14.00,2013-03-05 05:38:00,
2013-03-05 00:43:00,32.6,21.8,29.84,NNW,342,4.0,17.0,64,0.00,,---,0.00,VWS V14.00,2013-03-05 05:43:00,
2013-03-05 00:48:00,32.6,22.1,29.84,NNE,13,12.0,13.0,65,0.00,,---,0.00,VWS V14.00,2013-03-05 05:48:00,
2013-03-05 00:54:00,32.6,22.1,29.84,NW,317,9.0,9.0,65,0.00,,---,0.00,VWS V14.00,2013-03-05 05:54:00,
2013-03-05 00:59:00,32.6,22.1,29.84,NW,314,10.0,12.0,65,0.00,,---,0.00,VWS V14.00,2013-03-05 05:59:00,
2013-03-05 01:04:00,32.6,22.1,29.84,NNE,13,11.0,11.0,65,0.00,,---,0.00,VWS V14.00,2013-03-05 06:04:00,
2013-03-05 01:09:00,32.5,22.1,29.84,NNW,329,10.0,13.0,65,0.00,,---,0.00,VWS V14.00,2013-03-05 06:09:00,
2013-03-05 01:14:00,32.7,22.2,29.83,NW,323,8.0,17.0,65,0.00,,---,0.00,VWS V14.00,2013-03-05 06:14:00,
2013-03-05 01:19:00,32.6,22.1,29.84,NW,321,5.0,7.0,65,0.00,,---,0.00,VWS V14.00,2013-03-05 06:19:00,
2013-03-05 01:24:00,32.5,22.4,29.85,NW,309,13.0,14.0,66,0.00,,---,0.00,VWS V14.00,2013-03-05 06:24:00,
2013-03-05 01:29:00,32.6,22.5,29.85,NNE,32,7.0,9.0,66,0.00,,---,0.00,VWS V14.00,2013-03-05 06:29:00,
2013-03-05 01:34:00,32.6,22.5,29.85,WNW,302,9.0,9.0,66,0.00,,---,0.00,VWS V14.00,2013-03-05 06:34:00,
2013-03-05 01:39:00,32.5,22.4,29.85,WNW,292,8.0,11.0,66,0.00,,---,0.00,VWS V14.00,2013-03-05 06:39:00,
2013-03-05 01:44:00,32.5,22.4,29.84,NW,318,6.0,9.0,66,0.00,,---,0.00,VWS V14.00,2013-03-05 06:44:00,
2013-03-05 01:49:00,32.5,22.4,29.84,NNW,333,11.0,17.0,66,0.00,,---,0.00,VWS V14.00,2013-03-05 06:49:00,
2013-03-05 01:54:00,32.5,22.4,29.84,NW,308,8.0,14.0,66,0.00,,---,0.00,VWS V14.00,2013-03-05 06:54:00,
2013-03-05 01:59:00,32.4,22.3,29.84,NW,314,7.0,9.0,66,0.00,,---,0.00,VWS V14.00,2013-03-05 06:59:00,
2013-03-05 02:05:00,32.5,22.4,29.85,WNW,298,6.0,13.0,66,0.00,,---,0.00,VWS V14.00,2013-03-05 07:05:00,
2013-03-05 02:10:00,32.4,22.3,29.84,NW,312,5.0,10.0,66,0.00,,---,0.00,VWS V14.00,2013-03-05 07:10:00,
2013-03-05 02:15:00,32.4,22.7,29.84,NW,316,7.0,9.0,67,0.00,,---,0.00,VWS V14.00,2013-03-05 07:15:00,
2013-03-05 02:20:00,32.4,22.7,29.84,NW,309,4.0,16.0,67,0.00,,---,0.00,VWS V14.00,2013-03-05 07:20:00,
2013-03-05 02:25:00,32.3,22.6,29.84,NW,314,14.0,14.0,67,0.00,,---,0.00,VWS V14.00,2013-03-05 07:25:00,
2013-03-05 02:30:00,32.3,22.6,29.84,NNW,338,4.0,8.0,67,0.00,,---,0.00,VWS V14.00,2013-03-05 07:30:00,
2013-03-05 02:35:00,32.2,22.5,29.84,NNW,340,11.0,11.0,67,0.00,,---,0.00,VWS V14.00,2013-03-05 07:35:00,
2013-03-05 02:40:00,32.1,22.4,29.84,NW,306,5.0,12.0,67,0.00,,---,0.00,VWS V14.00,2013-03-05 07:40:00,
2013-03-05 02:45:00,32.1,22.4,29.84,NNW,336,3.0,10.0,67,0.00,,---,0.00,VWS V14.00,2013-03-05 07:45:00,
2013-03-05 02:50:00,32.1,22.4,29.84,NW,315,7.0,9.0,67,0.00,,---,0.00,VWS V14.00,2013-03-05 07:50:00,
2013-03-05 02:55:00,32.0,22.6,29.84,NNW,330,7.0,9.0,68,0.00,,---,0.00,VWS V14.00,2013-03-05 07:55:00,
2013-03-05 03:00:00,32.1,22.4,29.84,NW,307,7.0,12.0,67,0.00,,---,0.00,VWS V14.00,2013-03-05 08:00:00,
2013-03-05 03:05:00,32.1,22.8,29.84,NW,318,5.0,8.0,68,0.00,,---,0.00,VWS V14.00,2013-03-05 08:05:00,
2013-03-05 03:11:00,32.0,22.6,29.84,NW,326,7.0,11.0,68,0.00,,---,0.00,VWS V14.00,2013-03-05 08:11:00,
2013-03-05 03:16:00,32.0,22.6,29.85,NW,319,7.0,9.0,68,0.00,,---,0.00,VWS V14.00,2013-03-05 08:16:00,
2013-03-05 03:21:00,32.0,22.6,29.85,NW,311,4.0,7.0,68,0.00,,---,0.00,VWS V14.00,2013-03-05 08:21:00,
2013-03-05 03:26:00,31.9,22.5,29.85,NNW,328,5.0,10.0,68,0.00,,---,0.00,VWS V14.00,2013-03-05 08:26:00,
2013-03-05 03:31:00,31.8,22.8,29.85,NW,313,5.0,6.0,69,0.00,,---,0.00,VWS V14.00,2013-03-05 08:31:00,
2013-03-05 03:36:00,31.8,22.8,29.85,NW,321,9.0,9.0,69,0.00,,---,0.00,VWS V14.00,2013-03-05 08:36:00,
2013-03-05 03:41:00,31.8,22.8,29.85,NNW,335,2.0,6.0,69,0.00,,---,0.00,VWS V14.00,2013-03-05 08:41:00,
2013-03-05 03:46:00,31.8,22.8,29.85,NW,321,3.0,12.0,69,0.00,,---,0.00,VWS V14.00,2013-03-05 08:46:00,
2013-03-05 03:51:00,31.7,22.7,29.85,WNW,302,4.0,8.0,69,0.00,,---,0.00,VWS V14.00,2013-03-05 08:51:00,
2013-03-05 03:56:00,31.8,22.8,29.85,NNE,20,2.0,10.0,69,0.00,,---,0.00,VWS V14.00,2013-03-05 08:56:00,
2013-03-05 04:01:00,31.8,22.8,29.85,NNW,334,8.0,12.0,69,0.00,,---,0.00,VWS V14.00,2013-03-05 09:01:00,
2013-03-05 04:07:00,31.9,22.9,29.86,NNW,330,3.0,9.0,69,0.00,,---,0.00,VWS V14.00,2013-03-05 09:07:00,
2013-03-05 04:12:00,31.9,22.9,29.86,North,354,5.0,9.0,69,0.00,,---,0.00,VWS V14.00,2013-03-05 09:12:00,
2013-03-05 04:17:00,31.8,22.8,29.86,NNW,345,17.0,17.0,69,0.00,,---,0.00,VWS V14.00,2013-03-05 09:17:00,
2013-03-05 04:22:00,31.9,22.9,29.86,NNE,20,3.0,9.0,69,0.00,,---,0.00,VWS V14.00,2013-03-05 09:22:00,
2013-03-05 04:27:00,31.9,22.9,29.86,NW,316,8.0,13.0,69,0.00,,---,0.00,VWS V14.00,2013-03-05 09:27:00,
2013-03-05 04:32:00,31.8,22.8,29.86,NNW,331,4.0,8.0,69,0.00,,---,0.00,VWS V14.00,2013-03-05 09:32:00,
2013-03-05 04:37:00,31.8,22.8,29.86,NNW,347,9.0,16.0,69,0.00,,---,0.00,VWS V14.00,2013-03-05 09:37:00,
2013-03-05 04:42:00,31.8,22.8,29.87,WNW,300,6.0,10.0,69,0.00,,---,0.00,VWS V14.00,2013-03-05 09:42:00,
2013-03-05 04:47:00,31.8,22.8,29.87,North,1,8.0,11.0,69,0.00,,---,0.00,VWS V14.00,2013-03-05 09:47:00,
2013-03-05 04:53:00,31.8,22.8,29.87,North,350,9.0,12.0,69,0.00,,---,0.00,VWS V14.00,2013-03-05 09:53:00,
2013-03-05 04:58:00,31.7,22.7,29.87,NW,312,6.0,10.0,69,0.00,,---,0.00,VWS V14.00,2013-03-05 09:58:00,
2013-03-05 05:03:00,31.7,22.7,29.87,North,6,7.0,14.0,69,0.00,,---,0.00,VWS V14.00,2013-03-05 10:03:00,
2013-03-05 05:08:00,31.7,22.7,29.87,NW,316,7.0,11.0,69,0.00,,---,0.00,VWS V14.00,2013-03-05 10:08:00,
2013-03-05 05:13:00,31.8,22.8,29.87,NW,324,9.0,14.0,69,0.00,,---,0.00,VWS V14.00,2013-03-05 10:13:00,
2013-03-05 05:18:00,31.7,22.7,29.87,North,351,7.0,9.0,69,0.00,,---,0.00,VWS V14.00,2013-03-05 10:18:00,
2013-03-05 05:23:00,31.6,23.0,29.88,NW,309,6.0,8.0,70,0.00,,---,0.00,VWS V14.00,2013-03-05 10:23:00,
2013-03-05 05:28:00,31.6,23.0,29.88,NE,34,3.0,10.0,70,0.00,,---,0.00,VWS V14.00,2013-03-05 10:28:00,
2013-03-05 05:33:00,31.6,23.0,29.88,NNW,337,4.0,9.0,70,0.00,,---,0.00,VWS V14.00,2013-03-05 10:33:00,
2013-03-05 05:38:00,31.5,22.9,29.88,NNW,332,3.0,8.0,70,0.00,,---,0.00,VWS V14.00,2013-03-05 10:38:00,
2013-03-05 05:43:00,31.4,23.1,29.89,NNW,331,4.0,9.0,71,0.00,,---,0.00,VWS V14.00,2013-03-05 10:43:00,
2013-03-05 05:48:00,31.4,23.1,29.89,NW,321,3.0,10.0,71,0.00,,---,0.00,VWS V14.00,2013-03-05 10:48:00,
2013-03-05 05:53:00,31.4,23.1,29.89,NNW,338,3.0,6.0,71,0.00,,---,0.00,VWS V14.00,2013-03-05 10:53:00,
2013-03-05 05:58:00,31.3,23.0,29.89,NW,314,5.0,8.0,71,0.00,,---,0.00,VWS V14.00,2013-03-05 10:58:00,
2013-03-05 06:03:00,31.3,23.0,29.89,NW,326,6.0,7.0,71,0.00,,---,0.00,VWS V14.00,2013-03-05 11:03:00,
2013-03-05 06:08:00,31.3,23.0,29.89,NW,320,5.0,11.0,71,0.00,,---,0.00,VWS V14.00,2013-03-05 11:08:00,
2013-03-05 06:13:00,31.4,23.1,29.89,NW,315,8.0,11.0,71,0.00,,---,0.00,VWS V14.00,2013-03-05 11:13:00,
2013-03-05 06:19:00,31.4,23.1,29.89,North,6,4.0,4.0,71,0.00,,---,0.00,VWS V14.00,2013-03-05 11:19:00,
2013-03-05 06:24:00,31.3,23.0,29.90,NW,325,4.0,5.0,71,0.00,,---,0.00,VWS V14.00,2013-03-05 11:24:00,
2013-03-05 06:29:00,31.4,23.1,29.90,NNE,13,6.0,7.0,71,0.00,,---,0.00,VWS V14.00,2013-03-05 11:29:00,
2013-03-05 06:34:00,31.4,23.1,29.90,NW,324,5.0,7.0,71,0.00,,---,0.00,VWS V14.00,2013-03-05 11:34:00,
2013-03-05 06:39:00,31.5,23.2,29.91,NW,324,3.0,8.0,71,0.00,,---,0.00,VWS V14.00,2013-03-05 11:39:00,
2013-03-05 06:44:00,31.6,23.3,29.91,NNW,332,5.0,5.0,71,0.00,,---,0.00,VWS V14.00,2013-03-05 11:44:00,
2013-03-05 06:49:00,31.6,23.3,29.91,NNW,337,3.0,6.0,71,0.00,,---,0.00,VWS V14.00,2013-03-05 11:49:00,
2013-03-05 06:54:00,31.8,23.1,29.91,NW,315,5.0,7.0,70,0.00,,---,0.00,VWS V14.00,2013-03-05 11:54:00,
2013-03-05 06:59:00,32.0,23.3,29.91,NW,305,4.0,7.0,70,0.00,,---,0.00,VWS V14.00,2013-03-05 11:59:00,
2013-03-05 07:04:00,32.1,23.4,29.91,NW,321,3.0,10.0,70,0.00,,---,0.00,VWS V14.00,2013-03-05 12:04:00,
2013-03-05 07:10:00,32.2,23.5,29.91,NNW,330,5.0,7.0,70,0.00,,---,0.00,VWS V14.00,2013-03-05 12:10:00,
2013-03-05 07:15:00,32.4,23.4,29.91,NW,309,7.0,7.0,69,0.00,,---,0.00,VWS V14.00,2013-03-05 12:15:00,
2013-03-05 07:20:00,32.5,23.5,29.91,NNW,338,6.0,7.0,69,0.00,,---,0.00,VWS V14.00,2013-03-05 12:20:00,
2013-03-05 07:25:00,32.8,23.8,29.92,NW,316,8.0,9.0,69,0.00,,---,0.00,VWS V14.00,2013-03-05 12:25:00,
2013-03-05 07:30:00,33.0,23.6,29.92,NNW,343,4.0,6.0,68,0.00,,---,0.00,VWS V14.00,2013-03-05 12:30:00,
2013-03-05 07:35:00,33.2,23.8,29.92,NNW,342,5.0,7.0,68,0.00,,---,0.00,VWS V14.00,2013-03-05 12:35:00,
2013-03-05 07:40:00,33.4,24.0,29.92,NW,312,11.0,11.0,68,0.00,,---,0.00,VWS V14.00,2013-03-05 12:40:00,
2013-03-05 07:45:00,33.4,23.6,29.92,NW,314,4.0,11.0,67,0.00,,---,0.00,VWS V14.00,2013-03-05 12:45:00,
2013-03-05 07:50:00,33.6,23.8,29.92,NW,323,7.0,10.0,67,0.00,,---,0.00,VWS V14.00,2013-03-05 12:50:00,
2013-03-05 07:55:00,33.7,23.9,29.93,NNE,12,7.0,12.0,67,0.00,,---,0.00,VWS V14.00,2013-03-05 12:55:00,
2013-03-05 08:01:00,34.0,23.9,29.93,NNW,327,11.0,15.0,66,0.00,,---,0.00,VWS V14.00,2013-03-05 13:01:00,
2013-03-05 08:06:00,34.1,24.0,29.93,WNW,302,7.0,12.0,66,0.00,,---,0.00,VWS V14.00,2013-03-05 13:06:00,
2013-03-05 08:11:00,34.5,24.0,29.93,NW,318,8.0,11.0,65,0.00,,---,0.00,VWS V14.00,2013-03-05 13:11:00,
2013-03-05 08:16:00,34.6,24.1,29.93,NNW,347,9.0,10.0,65,0.00,,---,0.00,VWS V14.00,2013-03-05 13:16:00,
2013-03-05 08:21:00,34.6,24.1,29.94,NNW,343,8.0,13.0,65,0.00,,---,0.00,VWS V14.00,2013-03-05 13:21:00,
2013-03-05 08:26:00,34.9,24.0,29.94,North,4,11.0,12.0,64,0.00,,---,0.00,VWS V14.00,2013-03-05 13:26:00,
2013-03-05 08:31:00,35.0,24.1,29.94,NNW,337,6.0,13.0,64,0.00,,---,0.00,VWS V14.00,2013-03-05 13:31:00,
2013-03-05 08:36:00,35.1,24.2,29.94,NNW,343,9.0,14.0,64,0.00,,---,0.00,VWS V14.00,2013-03-05 13:36:00,
2013-03-05 08:41:00,35.3,24.0,29.93,North,8,11.0,18.0,63,0.00,,---,0.00,VWS V14.00,2013-03-05 13:41:00,
2013-03-05 08:47:00,35.3,24.0,29.93,North,359,8.0,12.0,63,0.00,,---,0.00,VWS V14.00,2013-03-05 13:47:00,
2013-03-05 08:52:00,35.6,24.3,29.93,NNW,343,8.0,12.0,63,0.00,,---,0.00,VWS V14.00,2013-03-05 13:52:00,
2013-03-05 08:57:00,35.9,24.2,29.93,NW,321,9.0,14.0,62,0.00,,---,0.00,VWS V14.00,2013-03-05 13:57:00,
2013-03-05 09:02:00,36.4,24.6,29.93,NNW,328,11.0,11.0,62,0.00,,---,0.00,VWS V14.00,2013-03-05 14:02:00,
2013-03-05 09:07:00,36.7,24.5,29.93,NW,311,6.0,11.0,61,0.00,,---,0.00,VWS V14.00,2013-03-05 14:07:00,
2013-03-05 09:12:00,36.6,24.4,29.93,NNW,345,5.0,14.0,61,0.00,,---,0.00,VWS V14.00,2013-03-05 14:12:00,
2013-03-05 09:17:00,36.9,24.3,29.93,NW,317,3.0,10.0,60,0.00,,---,0.00,VWS V14.00,2013-03-05 14:17:00,
2013-03-05 09:22:00,37.4,24.8,29.93,NW,304,4.0,11.0,60,0.00,,---,0.00,VWS V14.00,2013-03-05 14:22:00,
2013-03-05 09:27:00,37.6,24.6,29.93,NNW,332,7.0,14.0,59,0.00,,---,0.00,VWS V14.00,2013-03-05 14:27:00,
2013-03-05 09:32:00,37.3,24.7,29.93,NW,322,9.0,13.0,60,0.00,,---,0.00,VWS V14.00,2013-03-05 14:32:00,
2013-03-05 09:37:00,37.8,24.8,29.93,NNW,343,8.0,11.0,59,0.00,,---,0.00,VWS V14.00,2013-03-05 14:37:00,
2013-03-05 09:42:00,38.4,25.3,29.93,NNE,13,4.0,9.0,59,0.00,,---,0.00,VWS V14.00,2013-03-05 14:42:00,
2013-03-05 09:47:00,38.5,25.0,29.93,NNE,17,8.0,13.0,58,0.00,,---,0.00,VWS V14.00,2013-03-05 14:47:00,
2013-03-05 09:53:00,38.4,24.9,29.93,NE,53,6.0,11.0,58,0.00,,---,0.00,VWS V14.00,2013-03-05 14:53:00,
2013-03-05 09:58:00,38.7,25.2,29.92,NNW,331,7.0,14.0,58,0.00,,---,0.00,VWS V14.00,2013-03-05 14:58:00,
2013-03-05 10:03:00,38.8,25.3,29.92,NNW,345,7.0,13.0,58,0.00,,---,0.00,VWS V14.00,2013-03-05 15:03:00,
2013-03-05 10:08:00,39.1,25.6,29.92,North,354,5.0,11.0,58,0.00,,---,0.00,VWS V14.00,2013-03-05 15:08:00,
2013-03-05 10:13:00,39.3,25.4,29.92,NNW,345,6.0,15.0,57,0.00,,---,0.00,VWS V14.00,2013-03-05 15:13:00,
2013-03-05 10:18:00,39.4,25.5,29.92,NNW,342,8.0,11.0,57,0.00,,---,0.00,VWS V14.00,2013-03-05 15:18:00,
2013-03-05 10:23:00,39.3,25.4,29.92,NE,34,6.0,12.0,57,0.00,,---,0.00,VWS V14.00,2013-03-05 15:23:00,
2013-03-05 10:28:00,40.0,25.6,29.92,NNW,340,12.0,13.0,56,0.00,,---,0.00,VWS V14.00,2013-03-05 15:28:00,
2013-03-05 10:33:00,39.8,25.4,29.91,NNE,16,7.0,15.0,56,0.00,,---,0.00,VWS V14.00,2013-03-05 15:33:00,
2013-03-05 10:38:00,40.7,26.2,29.91,NNW,333,10.0,13.0,56,0.00,,---,0.00,VWS V14.00,2013-03-05 15:38:00,
2013-03-05 10:43:00,41.1,26.6,29.91,NW,323,4.0,12.0,56,0.00,,---,0.00,VWS V14.00,2013-03-05 15:43:00,
2013-03-05 10:48:00,41.0,26.1,29.91,NNW,348,7.0,11.0,55,0.00,,---,0.00,VWS V14.00,2013-03-05 15:48:00,
2013-03-05 10:53:00,41.6,26.6,29.91,NE,40,6.0,11.0,55,0.00,,---,0.00,VWS V14.00,2013-03-05 15:53:00,
2013-03-05 10:58:00,42.0,26.6,29.91,NW,321,8.0,12.0,54,0.00,,---,0.00,VWS V14.00,2013-03-05 15:58:00,
2013-03-05 11:03:00,42.1,26.7,29.90,NNE,23,9.0,14.0,54,0.00,,---,0.00,VWS V14.00,2013-03-05 16:03:00,
2013-03-05 11:08:00,42.3,26.4,29.90,NNE,16,9.0,17.0,53,0.00,,---,0.00,VWS V14.00,2013-03-05 16:08:00,
2013-03-05 11:13:00,42.4,26.5,29.90,NNE,32,8.0,13.0,53,0.00,,---,0.00,VWS V14.00,2013-03-05 16:13:00,
2013-03-05 11:18:00,42.8,26.4,29.90,NNE,31,6.0,10.0,52,0.00,,---,0.00,VWS V14.00,2013-03-05 16:18:00,
2013-03-05 11:23:00,43.1,26.7,29.91,NW,314,6.0,11.0,52,0.00,,---,0.00,VWS V14.00,2013-03-05 16:23:00,
2013-03-05 11:28:00,43.2,26.8,29.91,North,352,12.0,13.0,52,0.00,,---,0.00,VWS V14.00,2013-03-05 16:28:00,
2013-03-05 11:33:00,43.2,26.8,29.90,NNW,335,2.0,12.0,52,0.00,,---,0.00,VWS V14.00,2013-03-05 16:33:00,
2013-03-05 11:39:00,43.8,26.9,29.90,NW,322,8.0,9.0,51,0.00,,---,0.00,VWS V14.00,2013-03-05 16:39:00,
2013-03-05 11:44:00,44.0,27.0,29.90,ENE,58,4.0,6.0,51,0.00,,---,0.00,VWS V14.00,2013-03-05 16:44:00,
2013-03-05 11:49:00,43.7,26.3,29.90,ENE,72,7.0,10.0,50,0.00,,---,0.00,VWS V14.00,2013-03-05 16:49:00,
2013-03-05 11:54:00,44.2,26.8,29.90,NNE,30,5.0,8.0,50,0.00,,---,0.00,VWS V14.00,2013-03-05 16:54:00,
2013-03-05 11:59:00,44.0,27.0,29.90,NNW,346,9.0,9.0,51,0.00,,---,0.00,VWS V14.00,2013-03-05 16:59:00,
2013-03-05 12:04:00,44.8,27.8,29.89,North,4,11.0,12.0,51,0.00,,---,0.00,VWS V14.00,2013-03-05 17:04:00,
2013-03-05 12:09:00,44.7,27.2,29.89,NNW,348,7.0,9.0,50,0.00,,---,0.00,VWS V14.00,2013-03-05 17:09:00,
2013-03-05 12:14:00,44.4,26.9,29.89,NW,315,4.0,10.0,50,0.00,,---,0.00,VWS V14.00,2013-03-05 17:14:00,
2013-03-05 12:19:00,44.9,27.4,29.89,NNW,335,4.0,7.0,50,0.00,,---,0.00,VWS V14.00,2013-03-05 17:19:00,
2013-03-05 12:24:00,45.0,27.0,29.89,NW,316,7.0,13.0,49,0.00,,---,0.00,VWS V14.00,2013-03-05 17:24:00,
2013-03-05 12:29:00,45.2,27.2,29.89,NE,53,8.0,12.0,49,0.00,,---,0.00,VWS V14.00,2013-03-05 17:29:00,
2013-03-05 12:35:00,45.5,27.5,29.89,NNW,336,6.0,11.0,49,0.00,,---,0.00,VWS V14.00,2013-03-05 17:35:00,
2013-03-05 12:40:00,45.3,27.3,29.89,NNW,347,4.0,4.0,49,0.00,,---,0.00,VWS V14.00,2013-03-05 17:40:00,
2013-03-05 12:45:00,45.7,27.6,29.89,NNW,347,6.0,9.0,49,0.00,,---,0.00,VWS V14.00,2013-03-05 17:45:00,
2013-03-05 12:50:00,45.7,27.1,29.89,NNW,328,5.0,7.0,48,0.00,,---,0.00,VWS V14.00,2013-03-05 17:50:00,
2013-03-05 12:55:00,46.0,27.4,29.89,NW,322,5.0,11.0,48,0.00,,---,0.00,VWS V14.00,2013-03-05 17:55:00,
2013-03-05 13:00:00,45.6,27.1,29.88,NE,36,2.0,6.0,48,0.00,,---,0.00,VWS V14.00,2013-03-05 18:00:00,
2013-03-05 13:05:00,45.9,27.3,29.89,West,274,6.0,12.0,48,0.00,,---,0.00,VWS V14.00,2013-03-05 18:05:00,
2013-03-05 13:10:00,47.1,27.9,29.88,NNW,334,8.0,9.0,47,0.00,,---,0.00,VWS V14.00,2013-03-05 18:10:00,
2013-03-05 13:15:00,46.8,27.6,29.88,NNE,29,9.0,12.0,47,0.00,,---,0.00,VWS V14.00,2013-03-05 18:15:00,
2013-03-05 13:21:00,46.8,27.6,29.88,NW,325,2.0,6.0,47,0.00,,---,0.00,VWS V14.00,2013-03-05 18:21:00,
2013-03-05 13:26:00,47.3,27.6,29.89,NE,43,5.0,10.0,46,0.00,,---,0.00,VWS V14.00,2013-03-05 18:26:00,
2013-03-05 13:31:00,47.3,27.6,29.89,NNW,333,4.0,10.0,46,0.00,,---,0.00,VWS V14.00,2013-03-05 18:31:00,
2013-03-05 13:36:00,46.7,27.6,29.89,NW,320,2.0,5.0,47,0.00,,---,0.00,VWS V14.00,2013-03-05 18:36:00,
2013-03-05 13:41:00,47.3,27.6,29.89,NNE,22,5.0,9.0,46,0.00,,---,0.00,VWS V14.00,2013-03-05 18:41:00,
2013-03-05 13:46:00,47.1,27.9,29.89,NW,312,10.0,11.0,47,0.00,,---,0.00,VWS V14.00,2013-03-05 18:46:00,
2013-03-05 13:51:00,47.4,28.2,29.89,NW,322,6.0,11.0,47,0.00,,---,0.00,VWS V14.00,2013-03-05 18:51:00,
2013-03-05 13:56:00,47.6,27.9,29.89,North,359,5.0,9.0,46,0.00,,---,0.00,VWS V14.00,2013-03-05 18:56:00,
2013-03-05 14:02:00,47.9,27.6,29.89,NNE,28,8.0,12.0,45,0.00,,---,0.00,VWS V14.00,2013-03-05 19:02:00,
2013-03-05 14:07:00,47.7,28.0,29.89,ENE,68,4.0,8.0,46,0.00,,---,0.00,VWS V14.00,2013-03-05 19:07:00,
2013-03-05 14:12:00,47.5,27.2,29.89,NNW,328,1.0,7.0,45,0.00,,---,0.00,VWS V14.00,2013-03-05 19:12:00,
2013-03-05 14:17:00,48.1,28.3,29.89,NNW,340,5.0,12.0,46,0.00,,---,0.00,VWS V14.00,2013-03-05 19:17:00,
2013-03-05 14:22:00,48.6,27.7,29.88,NW,310,8.0,10.0,44,0.00,,---,0.00,VWS V14.00,2013-03-05 19:22:00,
2013-03-05 14:27:00,48.1,27.8,29.88,North,8,2.0,6.0,45,0.00,,---,0.00,VWS V14.00,2013-03-05 19:27:00,
2013-03-05 14:32:00,48.9,28.5,29.88,NW,321,4.0,7.0,45,0.00,,---,0.00,VWS V14.00,2013-03-05 19:32:00,
2013-03-05 14:38:00,48.7,27.8,29.88,NNE,16,6.0,11.0,44,0.00,,---,0.00,VWS V14.00,2013-03-05 19:38:00,
2013-03-05 14:43:00,48.5,27.6,29.88,ENE,77,3.0,8.0,44,0.00,,---,0.00,VWS V14.00,2013-03-05 19:43:00,
2013-03-05 14:48:00,48.5,27.6,29.88,NNE,32,1.0,6.0,44,0.00,,---,0.00,VWS V14.00,2013-03-05 19:48:00,
2013-03-05 14:53:00,48.3,27.4,29.88,NE,49,2.0,8.0,44,0.00,,---,0.00,VWS V14.00,2013-03-05 19:53:00,
2013-03-05 14:58:00,48.6,27.7,29.88,NE,35,2.0,8.0,44,0.00,,---,0.00,VWS V14.00,2013-03-05 19:58:00,
2013-03-05 15:03:00,48.8,27.9,29.88,North,358,3.0,7.0,44,0.00,,---,0.00,VWS V14.00,2013-03-05 20:03:00,
2013-03-05 15:08:00,48.6,27.7,29.88,NE,44,3.0,11.0,44,0.00,,---,0.00,VWS V14.00,2013-03-05 20:08:00,
2013-03-05 15:13:00,48.8,27.9,29.88,NE,44,1.0,8.0,44,0.00,,---,0.00,VWS V14.00,2013-03-05 20:13:00,
2013-03-05 15:18:00,48.6,27.7,29.88,NE,43,5.0,6.0,44,0.00,,---,0.00,VWS V14.00,2013-03-05 20:18:00,
2013-03-05 15:23:00,48.5,27.6,29.88,NNW,328,2.0,8.0,44,0.00,,---,0.00,VWS V14.00,2013-03-05 20:23:00,
2013-03-05 15:29:00,49.2,28.2,29.88,ENE,77,3.0,4.0,44,0.00,,---,0.00,VWS V14.00,2013-03-05 20:29:00,
2013-03-05 15:34:00,48.8,27.3,29.88,NNW,330,4.0,5.0,43,0.00,,---,0.00,VWS V14.00,2013-03-05 20:34:00,
2013-03-05 15:39:00,48.8,27.9,29.88,NW,316,6.0,7.0,44,0.00,,---,0.00,VWS V14.00,2013-03-05 20:39:00,
2013-03-05 15:44:00,48.7,27.8,29.88,NNE,18,6.0,6.0,44,0.00,,---,0.00,VWS V14.00,2013-03-05 20:44:00,
2013-03-05 15:49:00,48.6,27.7,29.88,North,10,4.0,4.0,44,0.00,,---,0.00,VWS V14.00,2013-03-05 20:49:00,
2013-03-05 15:54:00,48.4,27.5,29.87,NNE,29,2.0,4.0,44,0.00,,---,0.00,VWS V14.00,2013-03-05 20:54:00,
2013-03-05 15:59:00,48.6,27.7,29.87,NW,323,1.0,1.0,44,0.00,,---,0.00,VWS V14.00,2013-03-05 20:59:00,
2013-03-05 16:04:00,49.1,27.6,29.87,ESE,108,2.0,4.0,43,0.00,,---,0.00,VWS V14.00,2013-03-05 21:04:00,
2013-03-05 16:09:00,49.2,27.7,29.87,North,6,4.0,7.0,43,0.00,,---,0.00,VWS V14.00,2013-03-05 21:09:00,
2013-03-05 16:14:00,49.0,27.5,29.87,NE,53,6.0,7.0,43,0.00,,---,0.00,VWS V14.00,2013-03-05 21:14:00,
2013-03-05 16:20:00,48.7,27.2,29.87,NE,56,0.0,6.0,43,0.00,,---,0.00,VWS V14.00,2013-03-05 21:20:00,
2013-03-05 16:25:00,48.8,27.3,29.87,NE,49,7.0,7.0,43,0.00,,---,0.00,VWS V14.00,2013-03-05 21:25:00,
2013-03-05 16:30:00,48.4,27.5,29.87,NE,44,5.0,9.0,44,0.00,,---,0.00,VWS V14.00,2013-03-05 21:30:00,
2013-03-05 16:35:00,48.3,28.0,29.87,East,94,4.0,7.0,45,0.00,,---,0.00,VWS V14.00,2013-03-05 21:35:00,
2013-03-05 16:40:00,48.1,27.8,29.87,NE,56,5.0,8.0,45,0.00,,---,0.00,VWS V14.00,2013-03-05 21:40:00,
2013-03-05 16:45:00,48.1,27.8,29.87,ENE,58,2.0,10.0,45,0.00,,---,0.00,VWS V14.00,2013-03-05 21:45:00,
2013-03-05 16:50:00,47.8,27.5,29.87,ESE,111,6.0,9.0,45,0.00,,---,0.00,VWS V14.00,2013-03-05 21:50:00,
2013-03-05 16:55:00,47.6,27.3,29.87,NNE,15,5.0,8.0,45,0.00,,---,0.00,VWS V14.00,2013-03-05 21:55:00,
2013-03-05 17:01:00,47.2,27.0,29.87,NE,41,8.0,10.0,45,0.00,,---,0.00,VWS V14.00,2013-03-05 22:01:00,
2013-03-05 17:06:00,46.9,27.2,29.88,NE,51,3.0,9.0,46,0.00,,---,0.00,VWS V14.00,2013-03-05 22:06:00,
2013-03-05 17:11:00,46.7,27.0,29.88,NE,51,4.0,10.0,46,0.00,,---,0.00,VWS V14.00,2013-03-05 22:11:00,
2013-03-05 17:16:00,46.7,27.0,29.88,NNE,12,3.0,8.0,46,0.00,,---,0.00,VWS V14.00,2013-03-05 22:16:00,
2013-03-05 17:21:00,46.6,26.9,29.88,NE,50,3.0,7.0,46,0.00,,---,0.00,VWS V14.00,2013-03-05 22:21:00,
2013-03-05 17:26:00,46.6,27.5,29.88,NE,34,3.0,6.0,47,0.00,,---,0.00,VWS V14.00,2013-03-05 22:26:00,
2013-03-05 17:31:00,46.3,26.7,29.88,NE,53,3.0,9.0,46,0.00,,---,0.00,VWS V14.00,2013-03-05 22:31:00,
2013-03-05 17:36:00,46.0,26.9,29.88,NE,43,4.0,8.0,47,0.00,,---,0.00,VWS V14.00,2013-03-05 22:36:00,
2013-03-05 17:42:00,45.7,26.6,29.88,NE,48,4.0,7.0,47,0.00,,---,0.00,VWS V14.00,2013-03-05 22:42:00,
2013-03-05 17:47:00,45.4,26.9,29.89,ENE,60,2.0,9.0,48,0.00,,---,0.00,VWS V14.00,2013-03-05 22:47:00,
2013-03-05 17:52:00,45.2,26.7,29.89,NNE,27,5.0,8.0,48,0.00,,---,0.00,VWS V14.00,2013-03-05 22:52:00,
2013-03-05 17:57:00,45.1,27.1,29.89,NE,51,2.0,8.0,49,0.00,,---,0.00,VWS V14.00,2013-03-05 22:57:00,
2013-03-05 18:02:00,44.8,26.8,29.90,East,101,4.0,6.0,49,0.00,,---,0.00,VWS V14.00,2013-03-05 23:02:00,
2013-03-05 18:07:00,44.7,27.2,29.90,NE,49,0.0,4.0,50,0.00,,---,0.00,VWS V14.00,2013-03-05 23:07:00,
2013-03-05 18:12:00,44.5,27.0,29.90,NE,46,4.0,5.0,50,0.00,,---,0.00,VWS V14.00,2013-03-05 23:12:00,
2013-03-05 18:17:00,44.3,27.3,29.90,NE,56,0.0,3.0,51,0.00,,---,0.00,VWS V14.00,2013-03-05 23:17:00,
2013-03-05 18:22:00,44.1,27.1,29.90,ENE,58,2.0,4.0,51,0.00,,---,0.00,VWS V14.00,2013-03-05 23:22:00,
2013-03-05 18:27:00,44.0,27.0,29.90,NE,35,1.0,5.0,51,0.00,,---,0.00,VWS V14.00,2013-03-05 23:27:00,
2013-03-05 18:32:00,43.8,27.3,29.91,NE,35,4.0,5.0,52,0.00,,---,0.00,VWS V14.00,2013-03-05 23:32:00,
2013-03-05 18:38:00,43.6,27.1,29.91,NE,49,2.0,3.0,52,0.00,,---,0.00,VWS V14.00,2013-03-05 23:38:00,
2013-03-05 18:43:00,43.5,27.1,29.91,NE,55,1.0,4.0,52,0.00,,---,0.00,VWS V14.00,2013-03-05 23:43:00,
2013-03-05 18:48:00,43.4,27.4,29.91,NE,51,1.0,4.0,53,0.00,,---,0.00,VWS V14.00,2013-03-05 23:48:00,
2013-03-05 18:53:00,43.2,27.2,29.91,NE,51,2.0,2.0,53,0.00,,---,0.00,VWS V14.00,2013-03-05 23:53:00,
2013-03-05 18:58:00,43.0,27.0,29.91,NE,42,1.0,2.0,53,0.00,,---,0.00,VWS V14.00,2013-03-05 23:58:00,
2013-03-05 19:03:00,42.8,27.3,29.91,NE,34,4.0,4.0,54,0.00,,---,0.00,VWS V14.00,2013-03-06 00:03:00,
2013-03-05 19:08:00,42.7,27.2,29.91,NNE,32,1.0,4.0,54,0.00,,---,0.00,VWS V14.00,2013-03-06 00:08:00,
2013-03-05 19:13:00,42.5,27.0,29.91,NE,42,1.0,3.0,54,0.00,,---,0.00,VWS V14.00,2013-03-06 00:13:00,
2013-03-05 19:18:00,42.5,27.0,29.91,NE,37,0.0,4.0,54,0.00,,---,0.00,VWS V14.00,2013-03-06 00:18:00,
2013-03-05 19:23:00,42.4,27.4,29.92,North,8,1.0,2.0,55,0.00,,---,0.00,VWS V14.00,2013-03-06 00:23:00,
2013-03-05 19:28:00,42.3,27.3,29.92,NE,40,1.0,3.0,55,0.00,,---,0.00,VWS V14.00,2013-03-06 00:28:00,
2013-03-05 19:33:00,42.3,27.3,29.92,NNE,32,3.0,3.0,55,0.00,,---,0.00,VWS V14.00,2013-03-06 00:33:00,
2013-03-05 19:38:00,42.0,27.0,29.91,NE,34,4.0,5.0,55,0.00,,---,0.00,VWS V14.00,2013-03-06 00:38:00,
2013-03-05 19:43:00,41.8,27.3,29.91,NE,41,6.0,7.0,56,0.00,,---,0.00,VWS V14.00,2013-03-06 00:43:00,
2013-03-05 19:48:00,41.8,27.3,29.91,NE,39,3.0,6.0,56,0.00,,---,0.00,VWS V14.00,2013-03-06 00:48:00,
2013-03-05 19:53:00,41.6,27.1,29.91,North,360,2.0,4.0,56,0.00,,---,0.00,VWS V14.00,2013-03-06 00:53:00,
2013-03-05 19:58:00,41.5,27.0,29.91,NE,46,2.0,7.0,56,0.00,,---,0.00,VWS V14.00,2013-03-06 00:58:00,
2013-03-05 20:03:00,41.3,27.2,29.91,NE,55,3.0,5.0,57,0.00,,---,0.00,VWS V14.00,2013-03-06 01:03:00,
2013-03-05 20:08:00,41.2,27.1,29.91,NE,40,3.0,6.0,57,0.00,,---,0.00,VWS V14.00,2013-03-06 01:08:00,
2013-03-05 20:13:00,41.0,27.0,29.91,NNE,28,2.0,4.0,57,0.00,,---,0.00,VWS V14.00,2013-03-06 01:13:00,
2013-03-05 20:18:00,40.9,26.9,29.91,NNE,32,3.0,5.0,57,0.00,,---,0.00,VWS V14.00,2013-03-06 01:18:00,
2013-03-05 20:23:00,40.9,27.3,29.91,NNE,33,4.0,6.0,58,0.00,,---,0.00,VWS V14.00,2013-03-06 01:23:00,
2013-03-05 20:29:00,40.8,27.2,29.91,NE,44,2.0,4.0,58,0.00,,---,0.00,VWS V14.00,2013-03-06 01:29:00,
2013-03-05 20:34:00,40.8,27.2,29.91,NE,46,2.0,6.0,58,0.00,,---,0.00,VWS V14.00,2013-03-06 01:34:00,
2013-03-05 20:39:00,40.7,27.1,29.91,NE,56,3.0,4.0,58,0.00,,---,0.00,VWS V14.00,2013-03-06 01:39:00,
2013-03-05 20:44:00,40.6,27.0,29.91,NNE,32,5.0,5.0,58,0.00,,---,0.00,VWS V14.00,2013-03-06 01:44:00,
2013-03-05 20:49:00,40.6,27.4,29.91,NE,37,4.0,7.0,59,0.00,,---,0.00,VWS V14.00,2013-03-06 01:49:00,
2013-03-05 20:54:00,40.5,27.3,29.91,East,79,4.0,7.0,59,0.00,,---,0.00,VWS V14.00,2013-03-06 01:54:00,
2013-03-05 20:59:00,40.4,27.2,29.91,ENE,58,5.0,7.0,59,0.00,,---,0.00,VWS V14.00,2013-03-06 01:59:00,
2013-03-05 21:04:00,40.3,27.1,29.92,NE,42,4.0,4.0,59,0.00,,---,0.00,VWS V14.00,2013-03-06 02:04:00,
2013-03-05 21:10:00,40.2,27.0,29.91,NE,54,3.0,7.0,59,0.00,,---,0.00,VWS V14.00,2013-03-06 02:10:00,
2013-03-05 21:15:00,40.1,27.4,29.91,NE,54,4.0,5.0,60,0.00,,---,0.00,VWS V14.00,2013-03-06 02:15:00,
2013-03-05 21:20:00,40.0,27.2,29.91,NE,42,4.0,7.0,60,0.00,,---,0.00,VWS V14.00,2013-03-06 02:20:00,
2013-03-05 21:25:00,39.8,27.1,29.91,NE,56,3.0,4.0,60,0.00,,---,0.00,VWS V14.00,2013-03-06 02:25:00,
2013-03-05 21:30:00,39.7,27.0,29.91,NE,34,4.0,6.0,60,0.00,,---,0.00,VWS V14.00,2013-03-06 02:30:00,
2013-03-05 21:35:00,39.6,27.3,29.91,NE,44,1.0,5.0,61,0.00,,---,0.00,VWS V14.00,2013-03-06 02:35:00,
2013-03-05 21:40:00,39.5,27.2,29.92,ENE,57,3.0,6.0,61,0.00,,---,0.00,VWS V14.00,2013-03-06 02:40:00,
2013-03-05 21:45:00,39.3,27.0,29.92,NE,38,6.0,6.0,61,0.00,,---,0.00,VWS V14.00,2013-03-06 02:45:00,
2013-03-05 21:50:00,39.3,27.0,29.91,NE,52,7.0,7.0,61,0.00,,---,0.00,VWS V14.00,2013-03-06 02:50:00,
2013-03-05 21:55:00,39.2,27.3,29.92,NE,49,1.0,3.0,62,0.00,,---,0.00,VWS V14.00,2013-03-06 02:55:00,
2013-03-05 22:01:00,39.2,27.3,29.92,NE,46,2.0,2.0,62,0.00,,---,0.00,VWS V14.00,2013-03-06 03:01:00,
2013-03-05 22:06:00,39.3,27.4,29.92,NE,46,3.0,4.0,62,0.00,,---,0.00,VWS V14.00,2013-03-06 03:06:00,
2013-03-05 22:11:00,39.4,27.5,29.91,NE,34,4.0,6.0,62,0.00,,---,0.00,VWS V14.00,2013-03-06 03:11:00,
2013-03-05 22:16:00,39.4,27.5,29.91,NE,34,3.0,6.0,62,0.00,,---,0.00,VWS V14.00,2013-03-06 03:16:00,
2013-03-05 22:21:00,39.4,27.5,29.91,North,353,3.0,5.0,62,0.00,,---,0.00,VWS V14.00,2013-03-06 03:21:00,
2013-03-05 22:26:00,39.4,27.5,29.91,NE,37,5.0,6.0,62,0.00,,---,0.00,VWS V14.00,2013-03-06 03:26:00,
2013-03-05 22:31:00,39.4,27.5,29.91,NE,44,3.0,3.0,62,0.00,,---,0.00,VWS V14.00,2013-03-06 03:31:00,
2013-03-05 22:36:00,39.3,27.4,29.91,NE,48,1.0,3.0,62,0.00,,---,0.00,VWS V14.00,2013-03-06 03:36:00,
2013-03-05 22:42:00,39.3,27.8,29.91,NE,55,1.0,3.0,63,0.00,,---,0.00,VWS V14.00,2013-03-06 03:42:00,
2013-03-05 22:47:00,39.2,27.7,29.91,NE,49,1.0,4.0,63,0.00,,---,0.00,VWS V14.00,2013-03-06 03:47:00,
2013-03-05 22:52:00,39.1,27.6,29.91,ENE,71,5.0,5.0,63,0.00,,---,0.00,VWS V14.00,2013-03-06 03:52:00,
2013-03-05 22:57:00,39.1,27.6,29.91,NE,45,2.0,6.0,63,0.00,,---,0.00,VWS V14.00,2013-03-06 03:57:00,
2013-03-05 23:02:00,39.1,27.6,29.91,NE,49,2.0,6.0,63,0.00,,---,0.00,VWS V14.00,2013-03-06 04:02:00,
2013-03-05 23:07:00,39.1,27.6,29.91,ESE,119,0.0,4.0,63,0.00,,---,0.00,VWS V14.00,2013-03-06 04:07:00,
2013-03-05 23:13:00,39.1,27.6,29.90,East,94,2.0,5.0,63,0.00,,---,0.00,VWS V14.00,2013-03-06 04:13:00,
2013-03-05 23:18:00,39.1,27.6,29.90,NE,44,3.0,3.0,63,0.00,,---,0.00,VWS V14.00,2013-03-06 04:18:00,
2013-03-05 23:23:00,39.0,27.9,29.90,ENE,58,2.0,4.0,64,0.00,,---,0.00,VWS V14.00,2013-03-06 04:23:00,
2013-03-05 23:28:00,39.1,28.0,29.90,East,93,1.0,4.0,64,0.00,,---,0.00,VWS V14.00,2013-03-06 04:28:00,
2013-03-05 23:33:00,39.1,28.0,29.90,East,81,0.0,3.0,64,0.00,,---,0.00,VWS V14.00,2013-03-06 04:33:00,
2013-03-05 23:38:00,39.1,28.0,29.90,ESE,102,0.0,0.0,64,0.00,,---,0.00,VWS V14.00,2013-03-06 04:38:00,
2013-03-05 23:43:00,39.1,28.0,29.90,East,83,0.0,0.0,64,0.00,,---,0.00,VWS V14.00,2013-03-06 04:43:00,
2013-03-05 23:48:00,39.1,28.3,29.90,NE,56,1.0,1.0,65,0.00,,---,0.00,VWS V14.00,2013-03-06 04:48:00,
2013-03-05 23:53:00,39.1,28.3,29.90,NE,49,2.0,2.0,65,0.00,,---,0.00,VWS V14.00,2013-03-06 04:53:00,
2013-03-05 23:58:00,39.1,28.3,29.89,NNE,30,1.0,2.0,65,0.00,,---,0.00,VWS V14.00,2013-03-06 04:58:00,